sensor_id;sensor_type;location;lat;lon;timestamp;pressure;altitude;pressure_sealevel;temperature;humidity
19811;BME280;10065;49.632;8.346;2022-09-09T00:00:25;100100.81;;;19.16;75.41
19811;BME280;10065;49.632;8.346;2022-09-09T00:02:59;100093.19;;;19.13;75.42
19811;BME280;10065;49.632;8.346;2022-09-09T00:05:33;100096.50;;;19.15;74.92
19811;BME280;10065;49.632;8.346;2022-09-09T00:08:08;100096.69;;;19.14;74.99
19811;BME280;10065;49.632;8.346;2022-09-09T00:10:42;100091.13;;;19.15;74.76
19811;BME280;10065;49.632;8.346;2022-09-09T00:13:18;100092.16;;;19.14;74.79
19811;BME280;10065;49.632;8.346;2022-09-09T00:15:54;100095.25;;;19.11;75.11
19811;BME280;10065;49.632;8.346;2022-09-09T00:18:28;100093.19;;;19.13;74.96
19811;BME280;10065;49.632;8.346;2022-09-09T00:21:02;100090.53;;;19.07;75.02
19811;BME280;10065;49.632;8.346;2022-09-09T00:23:34;100091.72;;;19.11;75.24
19811;BME280;10065;49.632;8.346;2022-09-09T00:26:08;100081.41;;;19.14;74.92
19811;BME280;10065;49.632;8.346;2022-09-09T00:28:43;100087.38;;;19.10;75.46
19811;BME280;10065;49.632;8.346;2022-09-09T00:31:16;100087.00;;;19.06;75.72
19811;BME280;10065;49.632;8.346;2022-09-09T00:33:47;100078.94;;;19.06;75.56
19811;BME280;10065;49.632;8.346;2022-09-09T00:36:18;100079.38;;;19.03;75.94
19811;BME280;10065;49.632;8.346;2022-09-09T00:38:51;100079.78;;;19.07;76.25
19811;BME280;10065;49.632;8.346;2022-09-09T00:41:24;100083.06;;;19.09;75.87
19811;BME280;10065;49.632;8.346;2022-09-09T00:44:00;100080.94;;;19.17;75.63
19811;BME280;10065;49.632;8.346;2022-09-09T00:46:53;100083.25;;;19.14;75.61
19811;BME280;10065;49.632;8.346;2022-09-09T00:49:31;100070.06;;;19.06;76.22
19811;BME280;10065;49.632;8.346;2022-09-09T00:52:11;100082.84;;;19.10;76.35
19811;BME280;10065;49.632;8.346;2022-09-09T00:54:53;100084.50;;;19.11;76.28
19811;BME280;10065;49.632;8.346;2022-09-09T00:57:27;100091.53;;;19.12;75.98
19811;BME280;10065;49.632;8.346;2022-09-09T01:00:02;100089.00;;;19.17;75.53
19811;BME280;10065;49.632;8.346;2022-09-09T01:02:35;100081.41;;;19.14;76.05
19811;BME280;10065;49.632;8.346;2022-09-09T01:05:12;100074.41;;;19.07;75.86
19811;BME280;10065;49.632;8.346;2022-09-09T01:07:44;100069.66;;;19.02;76.25
19811;BME280;10065;49.632;8.346;2022-09-09T01:10:22;100073.41;;;18.95;76.53
19811;BME280;10065;49.632;8.346;2022-09-09T01:12:55;100069.03;;;19.07;76.22
19811;BME280;10065;49.632;8.346;2022-09-09T01:15:29;100073.91;;;19.23;75.27
19811;BME280;10065;49.632;8.346;2022-09-09T01:18:02;100074.91;;;19.29;74.44
19811;BME280;10065;49.632;8.346;2022-09-09T01:20:37;100070.72;;;19.39;74.17
19811;BME280;10065;49.632;8.346;2022-09-09T01:23:39;100078.56;;;19.47;73.50
19811;BME280;10065;49.632;8.346;2022-09-09T01:26:23;100070.69;;;19.46;73.09
19811;BME280;10065;49.632;8.346;2022-09-09T01:28:53;100082.25;;;19.46;73.47
19811;BME280;10065;49.632;8.346;2022-09-09T01:31:24;100080.25;;;19.35;73.95
19811;BME280;10065;49.632;8.346;2022-09-09T01:33:54;100086.09;;;19.26;74.16
19811;BME280;10065;49.632;8.346;2022-09-09T01:36:27;100084.47;;;19.25;74.58
19811;BME280;10065;49.632;8.346;2022-09-09T01:38:57;100080.94;;;19.17;74.24
19811;BME280;10065;49.632;8.346;2022-09-09T01:41:26;100084.47;;;19.25;73.71
19811;BME280;10065;49.632;8.346;2022-09-09T01:43:55;100074.91;;;19.29;73.27
19811;BME280;10065;49.632;8.346;2022-09-09T01:46:23;100074.88;;;19.35;73.48
19811;BME280;10065;49.632;8.346;2022-09-09T01:48:51;100076.50;;;19.49;72.28
19811;BME280;10065;49.632;8.346;2022-09-09T01:51:19;100069.41;;;19.55;71.79
19811;BME280;10065;49.632;8.346;2022-09-09T01:53:47;100071.06;;;19.56;71.76
19811;BME280;10065;49.632;8.346;2022-09-09T01:56:24;100073.28;;;19.66;71.03
19811;BME280;10065;49.632;8.346;2022-09-09T01:59:03;100071.63;;;19.65;70.63
19811;BME280;10065;49.632;8.346;2022-09-09T02:01:50;100069.03;;;19.51;70.82
19811;BME280;10065;49.632;8.346;2022-09-09T02:04:36;100072.75;;;19.44;71.02
19811;BME280;10065;49.632;8.346;2022-09-09T02:07:10;100075.28;;;19.39;71.29
19811;BME280;10065;49.632;8.346;2022-09-09T02:09:44;100073.66;;;19.31;71.76
19811;BME280;10065;49.632;8.346;2022-09-09T02:12:16;100081.53;;;19.33;71.92
19811;BME280;10065;49.632;8.346;2022-09-09T02:14:50;100088.09;;;19.43;71.52
19811;BME280;10065;49.632;8.346;2022-09-09T02:17:24;100095.59;;;19.35;71.71
19811;BME280;10065;49.632;8.346;2022-09-09T02:19:57;100092.47;;;19.31;71.68
19811;BME280;10065;49.632;8.346;2022-09-09T02:22:27;100092.28;;;19.26;72.17
19811;BME280;10065;49.632;8.346;2022-09-09T02:24:58;100091.91;;;19.23;72.09
19811;BME280;10065;49.632;8.346;2022-09-09T02:27:27;100089.41;;;19.21;72.84
19811;BME280;10065;49.632;8.346;2022-09-09T02:29:56;100084.22;;;19.33;71.90
19811;BME280;10065;49.632;8.346;2022-09-09T02:32:28;100085.66;;;19.29;72.26
19811;BME280;10065;49.632;8.346;2022-09-09T02:35:03;100091.88;;;19.29;72.55
19811;BME280;10065;49.632;8.346;2022-09-09T02:37:37;100089.59;;;19.26;72.75
19811;BME280;10065;49.632;8.346;2022-09-09T02:40:07;100083.19;;;19.27;72.58
19811;BME280;10065;49.632;8.346;2022-09-09T02:42:38;100076.63;;;19.16;73.11
19811;BME280;10065;49.632;8.346;2022-09-09T02:45:11;100073.72;;;19.18;73.40
19811;BME280;10065;49.632;8.346;2022-09-09T02:47:46;100073.13;;;19.09;73.80
19811;BME280;10065;49.632;8.346;2022-09-09T02:50:17;100070.88;;;19.06;73.71
19811;BME280;10065;49.632;8.346;2022-09-09T02:52:58;100053.97;;;18.99;73.89
19811;BME280;10065;49.632;8.346;2022-09-09T02:55:37;100065.97;;;18.97;73.85
19811;BME280;10065;49.632;8.346;2022-09-09T02:58:07;100061.59;;;19.02;73.83
19811;BME280;10065;49.632;8.346;2022-09-09T03:00:39;100069.25;;;18.99;73.99
19811;BME280;10065;49.632;8.346;2022-09-09T03:03:07;100066.34;;;19.00;73.93
19811;BME280;10065;49.632;8.346;2022-09-09T03:05:36;100061.41;;;18.97;74.13
19811;BME280;10065;49.632;8.346;2022-09-09T03:08:05;100069.69;;;18.96;74.09
19811;BME280;10065;49.632;8.346;2022-09-09T03:10:32;100074.63;;;18.99;74.03
19811;BME280;10065;49.632;8.346;2022-09-09T03:13:01;100063.06;;;18.98;74.19
19811;BME280;10065;49.632;8.346;2022-09-09T03:15:31;100065.94;;;19.03;73.87
19811;BME280;10065;49.632;8.346;2022-09-09T03:18:01;100070.69;;;19.01;73.90
19811;BME280;10065;49.632;8.346;2022-09-09T03:20:30;100074.41;;;19.00;74.04
19811;BME280;10065;49.632;8.346;2022-09-09T03:22:59;100074.63;;;18.99;74.28
19811;BME280;10065;49.632;8.346;2022-09-09T03:25:28;100089.09;;;18.91;74.68
19811;BME280;10065;49.632;8.346;2022-09-09T03:27:56;100076.94;;;18.89;74.61
19811;BME280;10065;49.632;8.346;2022-09-09T03:30:24;100083.13;;;18.89;74.68
19811;BME280;10065;49.632;8.346;2022-09-09T03:32:52;100084.19;;;18.88;74.60
19811;BME280;10065;49.632;8.346;2022-09-09T03:35:21;100088.31;;;18.84;74.78
19811;BME280;10065;49.632;8.346;2022-09-09T03:37:48;100088.50;;;18.89;74.66
19811;BME280;10065;49.632;8.346;2022-09-09T03:40:16;100091.16;;;18.96;74.43
19811;BME280;10065;49.632;8.346;2022-09-09T03:42:44;100089.50;;;19.01;73.71
19811;BME280;10065;49.632;8.346;2022-09-09T03:45:12;100080.38;;;19.09;73.55
19811;BME280;10065;49.632;8.346;2022-09-09T03:47:40;100078.50;;;19.16;73.40
19811;BME280;10065;49.632;8.346;2022-09-09T03:50:08;100079.13;;;19.11;73.59
19811;BME280;10065;49.632;8.346;2022-09-09T03:52:39;100077.72;;;19.02;74.32
19811;BME280;10065;49.632;8.346;2022-09-09T03:55:08;100076.91;;;18.95;74.68
19811;BME280;10065;49.632;8.346;2022-09-09T03:57:36;100080.00;;;18.92;74.73
19811;BME280;10065;49.632;8.346;2022-09-09T04:00:05;100082.91;;;18.97;74.46
19811;BME280;10065;49.632;8.346;2022-09-09T04:02:33;100079.63;;;18.89;75.05
19811;BME280;10065;49.632;8.346;2022-09-09T04:05:01;100081.09;;;18.78;76.05
19811;BME280;10065;49.632;8.346;2022-09-09T04:07:28;100067.66;;;18.78;75.82
19811;BME280;10065;49.632;8.346;2022-09-09T04:09:57;100073.47;;;18.68;76.82
19811;BME280;10065;49.632;8.346;2022-09-09T04:12:26;100076.38;;;18.67;76.98
19811;BME280;10065;49.632;8.346;2022-09-09T04:14:53;100073.47;;;18.68;77.04
19811;BME280;10065;49.632;8.346;2022-09-09T04:17:21;100068.50;;;18.65;77.06
19811;BME280;10065;49.632;8.346;2022-09-09T04:19:48;100081.94;;;18.65;77.65
19811;BME280;10065;49.632;8.346;2022-09-09T04:22:16;100082.34;;;18.69;77.18
19811;BME280;10065;49.632;8.346;2022-09-09T04:24:44;100088.34;;;18.71;77.05
19811;BME280;10065;49.632;8.346;2022-09-09T04:27:15;100082.19;;;18.64;77.58
19811;BME280;10065;49.632;8.346;2022-09-09T04:29:43;100080.09;;;18.59;78.02
19811;BME280;10065;49.632;8.346;2022-09-09T04:32:10;100085.28;;;18.61;78.37
19811;BME280;10065;49.632;8.346;2022-09-09T04:34:38;100092.47;;;18.67;78.00
19811;BME280;10065;49.632;8.346;2022-09-09T04:37:07;100093.31;;;18.61;78.28
19811;BME280;10065;49.632;8.346;2022-09-09T04:39:35;100098.28;;;18.64;78.41
19811;BME280;10065;49.632;8.346;2022-09-09T04:42:03;100100.56;;;18.60;78.44
19811;BME280;10065;49.632;8.346;2022-09-09T04:44:32;100101.97;;;18.56;78.89
19811;BME280;10065;49.632;8.346;2022-09-09T04:46:59;100108.38;;;18.49;79.65
19811;BME280;10065;49.632;8.346;2022-09-09T04:49:27;100106.97;;;18.46;79.61
19811;BME280;10065;49.632;8.346;2022-09-09T04:51:57;100115.22;;;18.45;80.11
19811;BME280;10065;49.632;8.346;2022-09-09T04:54:24;100112.31;;;18.39;80.57
19811;BME280;10065;49.632;8.346;2022-09-09T04:56:52;100110.44;;;18.40;80.08
19811;BME280;10065;49.632;8.346;2022-09-09T04:59:21;100115.00;;;18.39;80.24
19811;BME280;10065;49.632;8.346;2022-09-09T05:01:50;100109.44;;;18.34;80.68
19811;BME280;10065;49.632;8.346;2022-09-09T05:04:18;100113.13;;;18.40;80.54
19811;BME280;10065;49.632;8.346;2022-09-09T05:06:45;100110.88;;;18.43;80.07
19811;BME280;10065;49.632;8.346;2022-09-09T05:09:13;100120.59;;;18.45;79.94
19811;BME280;10065;49.632;8.346;2022-09-09T05:11:41;100119.75;;;18.44;80.33
19811;BME280;10065;49.632;8.346;2022-09-09T05:14:08;100126.56;;;18.53;79.69
19811;BME280;10065;49.632;8.346;2022-09-09T05:16:37;100126.13;;;18.56;79.58
19811;BME280;10065;49.632;8.346;2022-09-09T05:19:07;100120.78;;;18.50;79.83
19811;BME280;10065;49.632;8.346;2022-09-09T05:21:35;100128.19;;;18.48;79.76
19811;BME280;10065;49.632;8.346;2022-09-09T05:24:03;100126.97;;;18.43;79.57
19811;BME280;10065;49.632;8.346;2022-09-09T05:26:31;100125.31;;;18.42;79.95
19811;BME280;10065;49.632;8.346;2022-09-09T05:28:59;100128.41;;;18.39;79.84
19811;BME280;10065;49.632;8.346;2022-09-09T05:31:29;100134.22;;;18.36;80.18
19811;BME280;10065;49.632;8.346;2022-09-09T05:33:57;100131.72;;;18.41;79.45
19811;BME280;10065;49.632;8.346;2022-09-09T05:36:26;100134.00;;;18.45;79.52
19811;BME280;10065;49.632;8.346;2022-09-09T05:38:54;100143.72;;;18.46;79.51
19811;BME280;10065;49.632;8.346;2022-09-09T05:41:22;100138.34;;;18.46;79.23
19811;BME280;10065;49.632;8.346;2022-09-09T05:43:50;100145.38;;;18.47;79.09
19811;BME280;10065;49.632;8.346;2022-09-09T05:46:19;100146.59;;;18.51;78.60
19811;BME280;10065;49.632;8.346;2022-09-09T05:48:49;100143.50;;;18.54;78.33
19811;BME280;10065;49.632;8.346;2022-09-09T05:51:19;100146.59;;;18.57;78.67
19811;BME280;10065;49.632;8.346;2022-09-09T05:53:50;100144.34;;;18.61;77.93
19811;BME280;10065;49.632;8.346;2022-09-09T05:56:19;100146.00;;;18.62;77.40
19811;BME280;10065;49.632;8.346;2022-09-09T05:58:48;100149.31;;;18.64;77.64
19811;BME280;10065;49.632;8.346;2022-09-09T06:01:18;100151.16;;;18.63;77.09
19811;BME280;10065;49.632;8.346;2022-09-09T06:03:48;100154.06;;;18.62;77.30
19811;BME280;10065;49.632;8.346;2022-09-09T06:06:18;100149.09;;;18.59;77.14
19811;BME280;10065;49.632;8.346;2022-09-09T06:08:50;100152.59;;;18.59;77.65
19811;BME280;10065;49.632;8.346;2022-09-09T06:11:19;100151.16;;;18.63;76.99
19811;BME280;10065;49.632;8.346;2022-09-09T06:13:48;100149.28;;;18.70;76.86
19811;BME280;10065;49.632;8.346;2022-09-09T06:16:19;100159.00;;;18.78;77.06
19811;BME280;10065;49.632;8.346;2022-09-09T06:18:47;100163.91;;;18.94;75.98
19811;BME280;10065;49.632;8.346;2022-09-09T06:21:16;100159.13;;;19.16;75.27
19811;BME280;10065;49.632;8.346;2022-09-09T06:23:45;100153.94;;;19.21;75.05
19811;BME280;10065;49.632;8.346;2022-09-09T06:26:16;100160.56;;;19.25;74.63
19811;BME280;10065;49.632;8.346;2022-09-09T06:28:45;100156.34;;;19.36;74.10
19811;BME280;10065;49.632;8.346;2022-09-09T06:31:15;100158.22;;;19.35;73.92
19811;BME280;10065;49.632;8.346;2022-09-09T06:33:44;100158.84;;;19.37;73.97
19811;BME280;10065;49.632;8.346;2022-09-09T06:36:12;100149.94;;;19.43;73.47
19811;BME280;10065;49.632;8.346;2022-09-09T06:38:41;100157.75;;;19.45;73.68
19811;BME280;10065;49.632;8.346;2022-09-09T06:41:10;100164.41;;;19.49;73.24
19811;BME280;10065;49.632;8.346;2022-09-09T06:43:39;100151.75;;;19.56;72.93
19811;BME280;10065;49.632;8.346;2022-09-09T06:46:11;100151.34;;;19.59;72.76
19811;BME280;10065;49.632;8.346;2022-09-09T06:48:40;100148.00;;;19.64;72.42
19811;BME280;10065;49.632;8.346;2022-09-09T06:51:09;100140.75;;;19.64;72.54
19811;BME280;10065;49.632;8.346;2022-09-09T06:53:38;100152.13;;;19.66;72.64
19811;BME280;10065;49.632;8.346;2022-09-09T06:56:19;100147.94;;;19.70;72.77
19811;BME280;10065;49.632;8.346;2022-09-09T06:58:50;100143.84;;;19.68;72.58
19811;BME280;10065;49.632;8.346;2022-09-09T07:01:19;100150.06;;;19.62;73.26
19811;BME280;10065;49.632;8.346;2022-09-09T07:03:49;100146.78;;;19.60;73.73
19811;BME280;10065;49.632;8.346;2022-09-09T07:06:19;100151.34;;;19.59;74.66
19811;BME280;10065;49.632;8.346;2022-09-09T07:08:51;100159.63;;;19.58;74.71
19811;BME280;10065;49.632;8.346;2022-09-09T07:11:23;100158.19;;;19.48;76.27
19811;BME280;10065;49.632;8.346;2022-09-09T07:13:54;100144.75;;;19.42;77.27
19811;BME280;10065;49.632;8.346;2022-09-09T07:16:22;100155.53;;;19.42;77.85
19811;BME280;10065;49.632;8.346;2022-09-09T07:18:51;100159.63;;;19.44;77.89
19811;BME280;10065;49.632;8.346;2022-09-09T07:21:19;100162.94;;;19.46;77.75
19811;BME280;10065;49.632;8.346;2022-09-09T07:23:47;100165.03;;;19.51;77.50
19811;BME280;10065;49.632;8.346;2022-09-09T07:26:18;100155.69;;;19.60;77.03
19811;BME280;10065;49.632;8.346;2022-09-09T07:28:47;100166.81;;;19.64;76.19
19811;BME280;10065;49.632;8.346;2022-09-09T07:31:17;100162.47;;;19.69;75.64
19811;BME280;10065;49.632;8.346;2022-09-09T07:33:46;100169.03;;;19.73;75.17
19811;BME280;10065;49.632;8.346;2022-09-09T07:36:16;100168.00;;;19.74;75.12
19811;BME280;10065;49.632;8.346;2022-09-09T07:38:46;100169.66;;;19.75;74.60
19811;BME280;10065;49.632;8.346;2022-09-09T07:41:16;100169.41;;;19.83;73.71
19811;BME280;10065;49.632;8.346;2022-09-09T07:43:46;100167.13;;;19.80;73.35
19811;BME280;10065;49.632;8.346;2022-09-09T07:46:17;100172.09;;;19.83;73.99
19811;BME280;10065;49.632;8.346;2022-09-09T07:48:46;100169.31;;;19.97;73.59
19811;BME280;10065;49.632;8.346;2022-09-09T07:51:19;100168.81;;;20.13;73.09
19811;BME280;10065;49.632;8.346;2022-09-09T07:53:52;100173.66;;;20.36;71.73
19811;BME280;10065;49.632;8.346;2022-09-09T07:56:20;100172.75;;;20.48;71.23
19811;BME280;10065;49.632;8.346;2022-09-09T07:58:49;100166.59;;;20.59;70.75
19811;BME280;10065;49.632;8.346;2022-09-09T08:01:21;100171.19;;;20.84;69.65
19811;BME280;10065;49.632;8.346;2022-09-09T08:03:54;100168.94;;;20.99;68.00
19811;BME280;10065;49.632;8.346;2022-09-09T08:06:22;100174.19;;;21.12;66.61
19811;BME280;10065;49.632;8.346;2022-09-09T08:08:51;100175.00;;;21.19;66.16
19811;BME280;10065;49.632;8.346;2022-09-09T08:11:19;100171.53;;;21.30;64.96
19811;BME280;10065;49.632;8.346;2022-09-09T08:13:47;100180.22;;;21.32;65.01
19811;BME280;10065;49.632;8.346;2022-09-09T08:16:22;100183.22;;;21.43;65.05
19811;BME280;10065;49.632;8.346;2022-09-09T08:18:50;100182.59;;;21.40;65.58
19811;BME280;10065;49.632;8.346;2022-09-09T08:21:20;100179.31;;;21.38;65.39
19811;BME280;10065;49.632;8.346;2022-09-09T08:23:50;100183.34;;;21.29;65.58
19811;BME280;10065;49.632;8.346;2022-09-09T08:26:25;100192.84;;;21.14;66.52
19811;BME280;10065;49.632;8.346;2022-09-09T08:28:56;100189.25;;;21.01;66.61
19811;BME280;10065;49.632;8.346;2022-09-09T08:31:27;100195.72;;;20.94;67.07
19811;BME280;10065;49.632;8.346;2022-09-09T08:33:56;100198.88;;;20.91;67.32
19811;BME280;10065;49.632;8.346;2022-09-09T08:36:27;100197.72;;;20.80;67.90
19811;BME280;10065;49.632;8.346;2022-09-09T08:38:56;100197.34;;;20.77;68.61
19811;BME280;10065;49.632;8.346;2022-09-09T08:41:41;100207.34;;;21.19;68.67
19811;BME280;10065;49.632;8.346;2022-09-09T08:44:16;100200.75;;;21.82;66.17
19811;BME280;10065;49.632;8.346;2022-09-09T08:46:55;100193.19;;;22.20;64.43
19811;BME280;10065;49.632;8.346;2022-09-09T08:49:39;100192.97;;;22.75;62.00
19811;BME280;10065;49.632;8.346;2022-09-09T08:52:16;100178.81;;;23.31;59.60
19811;BME280;10065;49.632;8.346;2022-09-09T08:54:46;100179.97;;;23.58;58.29
19811;BME280;10065;49.632;8.346;2022-09-09T08:57:20;100184.81;;;23.85;57.77
19811;BME280;10065;49.632;8.346;2022-09-09T08:59:54;100184.13;;;23.78;57.27
19811;BME280;10065;49.632;8.346;2022-09-09T09:02:29;100194.34;;;23.47;57.43
19811;BME280;10065;49.632;8.346;2022-09-09T09:05:09;100195.88;;;23.32;57.86
19811;BME280;10065;49.632;8.346;2022-09-09T09:07:48;100203.09;;;23.03;58.22
19811;BME280;10065;49.632;8.346;2022-09-09T09:10:29;100198.34;;;22.63;59.94
19811;BME280;10065;49.632;8.346;2022-09-09T09:13:14;100194.75;;;22.28;61.68
19811;BME280;10065;49.632;8.346;2022-09-09T09:15:45;100188.47;;;22.04;63.03
19811;BME280;10065;49.632;8.346;2022-09-09T09:18:17;100191.50;;;21.77;64.40
19811;BME280;10065;49.632;8.346;2022-09-09T09:20:54;100201.69;;;21.57;65.66
19811;BME280;10065;49.632;8.346;2022-09-09T09:23:29;100200.88;;;21.38;66.84
19811;BME280;10065;49.632;8.346;2022-09-09T09:26:01;100203.53;;;21.27;67.95
19811;BME280;10065;49.632;8.346;2022-09-09T09:28:31;100191.25;;;24.24;59.73
19811;BME280;10065;49.632;8.346;2022-09-09T09:31:03;100194.16;;;26.10;51.67
19811;BME280;10065;49.632;8.346;2022-09-09T09:33:38;100185.75;;;27.64;47.08
19811;BME280;10065;49.632;8.346;2022-09-09T09:36:12;100173.56;;;27.77;46.35
19811;BME280;10065;49.632;8.346;2022-09-09T09:38:52;100182.06;;;27.33;46.83
19811;BME280;10065;49.632;8.346;2022-09-09T09:41:41;100173.28;;;26.42;48.32
19811;BME280;10065;49.632;8.346;2022-09-09T09:44:22;100173.56;;;25.65;49.86
19811;BME280;10065;49.632;8.346;2022-09-09T09:46:51;100172.63;;;24.94;51.83
19811;BME280;10065;49.632;8.346;2022-09-09T09:49:20;100174.84;;;24.47;53.06
19811;BME280;10065;49.632;8.346;2022-09-09T09:51:48;100168.13;;;24.05;54.46
19811;BME280;10065;49.632;8.346;2022-09-09T09:54:21;100169.63;;;23.84;55.70
19811;BME280;10065;49.632;8.346;2022-09-09T09:56:50;100174.16;;;23.67;56.27
19811;BME280;10065;49.632;8.346;2022-09-09T09:59:23;100175.38;;;23.47;56.98
19811;BME280;10065;49.632;8.346;2022-09-09T10:02:18;100177.28;;;23.35;55.64
19811;BME280;10065;49.632;8.346;2022-09-09T10:04:48;100171.28;;;23.45;54.21
19811;BME280;10065;49.632;8.346;2022-09-09T10:07:19;100175.50;;;24.37;50.99
19811;BME280;10065;49.632;8.346;2022-09-09T10:09:52;100174.00;;;24.63;48.80
19811;BME280;10065;49.632;8.346;2022-09-09T10:12:30;100161.06;;;24.20;48.89
19811;BME280;10065;49.632;8.346;2022-09-09T10:15:10;100166.50;;;24.20;49.58
19811;BME280;10065;49.632;8.346;2022-09-09T10:17:54;100162.31;;;25.13;47.59
19811;BME280;10065;49.632;8.346;2022-09-09T10:20:34;100158.53;;;25.36;47.11
19811;BME280;10065;49.632;8.346;2022-09-09T10:23:16;100163.56;;;25.05;49.29
19811;BME280;10065;49.632;8.346;2022-09-09T10:26:03;100159.22;;;24.54;51.20
19811;BME280;10065;49.632;8.346;2022-09-09T10:28:48;100159.84;;;24.11;53.24
19811;BME280;10065;49.632;8.346;2022-09-09T10:31:25;100151.84;;;23.88;54.31
19811;BME280;10065;49.632;8.346;2022-09-09T10:34:09;100157.69;;;23.68;55.50
19811;BME280;10065;49.632;8.346;2022-09-09T10:36:46;100150.31;;;23.63;55.24
19811;BME280;10065;49.632;8.346;2022-09-09T10:39:22;100144.81;;;23.47;55.57
19811;BME280;10065;49.632;8.346;2022-09-09T10:41:58;100157.16;;;23.31;56.44
19811;BME280;10065;49.632;8.346;2022-09-09T10:44:40;100153.31;;;23.27;56.25
19811;BME280;10065;49.632;8.346;2022-09-09T10:47:28;100150.97;;;23.31;56.62
19811;BME280;10065;49.632;8.346;2022-09-09T10:50:13;100152.03;;;23.18;56.89
19811;BME280;10065;49.632;8.346;2022-09-09T10:52:51;100150.75;;;23.09;56.44
19811;BME280;10065;49.632;8.346;2022-09-09T10:55:30;100147.50;;;22.95;56.48
19811;BME280;10065;49.632;8.346;2022-09-09T10:58:02;100147.72;;;22.82;55.41
19811;BME280;10065;49.632;8.346;2022-09-09T11:00:38;100140.91;;;22.79;55.78
19811;BME280;10065;49.632;8.346;2022-09-09T11:03:09;100141.97;;;22.78;56.96
19811;BME280;10065;49.632;8.346;2022-09-09T11:05:46;100128.31;;;22.97;56.79
19811;BME280;10065;49.632;8.346;2022-09-09T11:08:19;100124.25;;;23.34;55.92
19811;BME280;10065;49.632;8.346;2022-09-09T11:10:53;100126.69;;;23.76;54.46
19811;BME280;10065;49.632;8.346;2022-09-09T11:13:30;100119.94;;;23.90;54.55
19811;BME280;10065;49.632;8.346;2022-09-09T11:16:05;100120.41;;;23.58;55.58
19811;BME280;10065;49.632;8.346;2022-09-09T11:18:41;100115.59;;;23.60;55.94
19811;BME280;10065;49.632;8.346;2022-09-09T11:21:17;100130.53;;;23.63;54.24
19811;BME280;10065;49.632;8.346;2022-09-09T11:23:51;100127.59;;;23.65;53.75
19811;BME280;10065;49.632;8.346;2022-09-09T11:26:28;100123.84;;;23.82;53.76
19811;BME280;10065;49.632;8.346;2022-09-09T11:29:09;100128.34;;;23.77;52.46
19811;BME280;10065;49.632;8.346;2022-09-09T11:31:54;100122.19;;;23.65;52.98
19811;BME280;10065;49.632;8.346;2022-09-09T11:34:34;100119.31;;;23.71;52.61
19811;BME280;10065;49.632;8.346;2022-09-09T11:40:17;100124.25;;;23.34;54.18
19811;BME280;10065;49.632;8.346;2022-09-09T11:42:47;100123.78;;;23.25;54.05
19811;BME280;10065;49.632;8.346;2022-09-09T11:45:22;100135.94;;;23.11;54.70
19811;BME280;10065;49.632;8.346;2022-09-09T11:47:54;100137.19;;;23.32;53.23
19811;BME280;10065;49.632;8.346;2022-09-09T11:50:31;100140.53;;;23.91;51.80
19811;BME280;10065;49.632;8.346;2022-09-09T11:53:18;100139.63;;;26.21;45.01
19811;BME280;10065;49.632;8.346;2022-09-09T11:56:02;100146.69;;;26.86;41.92
19811;BME280;10065;49.632;8.346;2022-09-09T11:58:36;100145.63;;;26.50;40.95
19811;BME280;10065;49.632;8.346;2022-09-09T12:01:25;100145.47;;;25.76;41.93
19811;BME280;10065;49.632;8.346;2022-09-09T12:04:11;100150.88;;;25.11;44.25
19811;BME280;10065;49.632;8.346;2022-09-09T12:06:50;100146.34;;;24.78;46.07
19811;BME280;10065;49.632;8.346;2022-09-09T12:09:27;100144.53;;;24.67;47.88
19811;BME280;10065;49.632;8.346;2022-09-09T12:12:21;100151.13;;;24.71;47.97
19811;BME280;10065;49.632;8.346;2022-09-09T12:14:58;100149.25;;;25.10;47.09
19811;BME280;10065;49.632;8.346;2022-09-09T12:17:28;100161.84;;;24.99;46.44
19811;BME280;10065;49.632;8.346;2022-09-09T12:20:13;100158.50;;;24.59;46.51
19811;BME280;10065;49.632;8.346;2022-09-09T12:25:55;100175.19;;;24.06;46.87
19811;BME280;10065;49.632;8.346;2022-09-09T12:28:39;100161.66;;;23.77;47.76
19811;BME280;10065;49.632;8.346;2022-09-09T12:31:10;100162.88;;;23.58;47.05
19811;BME280;10065;49.632;8.346;2022-09-09T12:33:45;100167.16;;;23.42;47.98
19811;BME280;10065;49.632;8.346;2022-09-09T12:36:16;100160.03;;;23.24;49.82
19811;BME280;10065;49.632;8.346;2022-09-09T12:38:46;100167.31;;;23.24;50.70
19811;BME280;10065;49.632;8.346;2022-09-09T12:41:21;100159.94;;;23.08;51.51
19811;BME280;10065;49.632;8.346;2022-09-09T12:43:51;100161.34;;;22.99;51.83
19811;BME280;10065;49.632;8.346;2022-09-09T12:46:30;100160.06;;;22.89;51.82
19811;BME280;10065;49.632;8.346;2022-09-09T12:49:00;100160.41;;;22.81;52.23
19811;BME280;10065;49.632;8.346;2022-09-09T12:51:30;100161.19;;;22.70;53.68
19811;BME280;10065;49.632;8.346;2022-09-09T12:53:59;100176.47;;;22.53;55.73
19811;BME280;10065;49.632;8.346;2022-09-09T12:56:28;100175.88;;;22.39;56.41
19811;BME280;10065;49.632;8.346;2022-09-09T12:58:58;100175.72;;;22.23;57.27
19811;BME280;10065;49.632;8.346;2022-09-09T13:01:28;100167.78;;;21.98;60.09
19811;BME280;10065;49.632;8.346;2022-09-09T13:03:57;100162.25;;;21.74;62.40
19811;BME280;10065;49.632;8.346;2022-09-09T13:06:27;100166.31;;;21.65;63.63
19811;BME280;10065;49.632;8.346;2022-09-09T13:08:56;100166.19;;;21.60;64.11
19811;BME280;10065;49.632;8.346;2022-09-09T13:11:29;100161.63;;;21.61;64.11
19811;BME280;10065;49.632;8.346;2022-09-09T13:13:59;100162.06;;;21.58;64.27
19811;BME280;10065;49.632;8.346;2022-09-09T13:16:28;100160.72;;;21.49;64.49
19811;BME280;10065;49.632;8.346;2022-09-09T13:18:59;100149.06;;;21.36;65.61
19811;BME280;10065;49.632;8.346;2022-09-09T13:21:34;100135.88;;;21.28;66.20
19811;BME280;10065;49.632;8.346;2022-09-09T13:24:05;100130.72;;;21.27;65.97